Time;durP1;ratioP1;P1;durP2;ratioP2;P2;SDS_P1;SDS_P2;PMS_P1;PMS_P2;Temp;Humidity;BMP_temperature;BMP_pressure;BME280_temperature;BME280_humidity;BME280_pressure;Samples;Min_cycle;Max_cycle;Signal;HPM_P1;HPM_P2
2023/12/09 00:00:45;;;;;;;;;0.00;0.00;;;;;-146.25;100.00;57879.81;5098896;27;45419;-77
2023/12/09 00:03:11;;;;;;;;;0.00;0.00;;;;;-146.25;100.00;57879.81;5099587;27;45362;-77
2023/12/09 00:05:36;;;;;;;;;1.75;0.00;;;;;-146.25;100.00;57879.81;5098845;27;45533;-77
2023/12/09 00:08:02;;;;;;;;;0.00;0.00;;;;;-146.25;100.00;57879.81;5098806;27;45307;-77
2023/12/09 00:10:28;;;;;;;;;0.00;0.00;;;;;-146.25;100.00;57879.81;5098976;27;45291;-77
2023/12/09 00:12:54;;;;;;;;;1.00;0.00;;;;;-146.25;100.00;57879.81;5099046;27;45309;-77
2023/12/09 00:15:20;;;;;;;;;0.00;0.00;;;;;-146.25;100.00;57879.81;5098785;27;45811;-77
2023/12/09 00:17:46;;;;;;;;;0.75;0.00;;;;;-146.25;100.00;57879.81;5098473;27;45193;-77
2023/12/09 00:20:12;;;;;;;;;0.00;0.00;;;;;-146.25;100.00;57879.81;5099124;27;45559;-77
2023/12/09 00:22:38;;;;;;;;;0.00;0.00;;;;;-146.25;100.00;57879.81;5098953;27;45314;-77
2023/12/09 00:25:06;;;;;;;;;0.00;0.00;;;;;-146.25;100.00;57879.81;5098332;27;46528;-77
2023/12/09 00:27:32;;;;;;;;;0.33;0.00;;;;;-146.25;100.00;57879.81;5098522;27;45464;-77
2023/12/09 00:29:57;;;;;;;;;0.33;0.00;;;;;-146.25;100.00;57879.81;5098458;27;45383;-77
2023/12/09 00:32:23;;;;;;;;;0.00;0.00;;;;;-146.25;100.00;57879.81;5098679;27;45290;-77
2023/12/09 00:34:48;;;;;;;;;0.00;0.00;;;;;-146.25;100.00;57879.81;5098377;27;45299;-77
2023/12/09 00:37:14;;;;;;;;;0.00;0.00;;;;;-146.25;100.00;57879.81;5098454;27;45648;-77
2023/12/09 00:39:40;;;;;;;;;0.00;0.00;;;;;-146.25;100.00;57879.81;5098397;27;45416;-77
2023/12/09 00:42:06;;;;;;;;;0.00;0.00;;;;;-146.25;100.00;57879.81;5098574;27;45455;-77
2023/12/09 00:44:31;;;;;;;;;0.00;0.00;;;;;-146.25;100.00;57879.81;5098312;27;46095;-77
2023/12/09 00:46:57;;;;;;;;;0.00;0.00;;;;;-146.25;100.00;57879.81;5098166;27;45377;-77
2023/12/09 00:49:23;;;;;;;;;0.50;0.00;;;;;-146.25;100.00;57879.81;5098364;27;45390;-77
2023/12/09 00:51:49;;;;;;;;;0.00;0.00;;;;;-146.25;100.00;57879.81;5098157;27;45334;-77
2023/12/09 00:54:14;;;;;;;;;0.00;0.00;;;;;-146.25;100.00;57879.81;5097054;27;46285;-77
2023/12/09 00:56:41;;;;;;;;;0.00;0.00;;;;;-146.25;100.00;57879.81;5097301;27;45256;-77
2023/12/09 00:59:07;;;;;;;;;0.00;0.00;;;;;-146.25;100.00;57879.81;5097957;27;45721;-77
2023/12/09 01:01:35;;;;;;;;;0.00;0.00;;;;;-146.25;100.00;57879.81;5097857;27;45370;-77
2023/12/09 01:04:01;;;;;;;;;0.00;0.00;;;;;-146.25;100.00;57879.81;5097216;27;46171;-77
2023/12/09 01:06:30;;;;;;;;;0.00;0.00;;;;;-146.25;100.00;57879.81;5078969;27;45488;-77
2023/12/09 01:08:56;;;;;;;;;1.00;0.00;;;;;-146.25;100.00;57879.81;5077980;27;45378;-77
2023/12/09 01:11:21;;;;;;;;;0.00;0.00;;;;;-146.25;100.00;57879.81;5097791;27;45491;-77
2023/12/09 01:13:47;;;;;;;;;0.33;0.00;;;;;-146.25;100.00;57879.81;5097557;27;45627;-77
2023/12/09 01:16:12;;;;;;;;;0.00;0.00;;;;;-146.25;100.00;57879.81;5116345;27;45457;-77
2023/12/09 01:18:38;;;;;;;;;0.00;0.00;;;;;-146.25;100.00;57879.81;5118321;27;45384;-77
2023/12/09 01:21:04;;;;;;;;;0.00;0.00;;;;;-146.25;100.00;57879.81;5118504;27;45352;-77
2023/12/09 01:23:30;;;;;;;;;0.00;0.00;;;;;-146.25;100.00;57879.81;5118123;27;46273;-77
2023/12/09 01:25:55;;;;;;;;;0.00;0.00;;;;;-146.25;100.00;57879.81;5118246;27;45274;-77
2023/12/09 01:28:21;;;;;;;;;0.00;0.00;;;;;-146.25;100.00;57879.81;5118504;27;45215;-77
2023/12/09 01:30:46;;;;;;;;;0.00;0.00;;;;;-146.25;100.00;57879.81;5119012;27;45492;-78
2023/12/09 01:33:12;;;;;;;;;0.00;0.00;;;;;-146.25;100.00;57879.81;5099594;27;45777;-77
2023/12/09 01:35:37;;;;;;;;;0.00;0.00;;;;;-146.25;100.00;57879.81;5118042;27;45386;-80
2023/12/09 01:38:03;;;;;;;;;0.33;0.00;;;;;-146.25;100.00;57879.81;5118056;27;45445;-77
2023/12/09 01:40:28;;;;;;;;;2.00;0.00;;;;;-146.25;100.00;57879.81;5118524;27;45350;-77
2023/12/09 01:42:54;;;;;;;;;0.00;0.00;;;;;-146.25;100.00;57879.81;5118253;27;45690;-77
2023/12/09 01:45:20;;;;;;;;;0.00;0.00;;;;;-146.25;100.00;57879.81;5118093;27;45264;-77
2023/12/09 01:47:47;;;;;;;;;1.00;0.00;;;;;-146.25;100.00;57879.81;5118566;27;45481;-77
2023/12/09 01:50:15;;;;;;;;;0.00;0.00;;;;;-146.25;100.00;57879.81;5118281;27;45580;-77
2023/12/09 01:52:41;;;;;;;;;0.00;0.00;;;;;-146.25;100.00;57879.81;5117748;27;45273;-77
2023/12/09 01:55:10;;;;;;;;;1.00;0.00;;;;;-146.25;100.00;57879.81;5118005;27;45343;-77
2023/12/09 01:57:36;;;;;;;;;1.00;0.00;;;;;-146.25;100.00;57879.81;5117855;27;45402;-77
2023/12/09 02:00:04;;;;;;;;;0.00;0.00;;;;;-146.25;100.00;57879.81;5118091;27;45493;-78
2023/12/09 02:02:30;;;;;;;;;0.00;0.00;;;;;-146.25;100.00;57879.81;5117656;27;46030;-77
2023/12/09 02:04:57;;;;;;;;;0.00;0.00;;;;;-146.25;100.00;57879.81;5117604;27;45327;-77
2023/12/09 02:07:23;;;;;;;;;0.00;0.00;;;;;-146.25;100.00;57879.81;5117718;27;45165;-78
2023/12/09 02:09:49;;;;;;;;;0.00;0.00;;;;;-146.25;100.00;57879.81;5118212;27;45396;-78
2023/12/09 02:12:29;;;;;;;;;2.00;0.00;;;;;-146.25;100.00;57879.81;5117549;27;45505;-78
2023/12/09 02:15:01;;;;;;;;;0.00;0.00;;;;;-146.25;100.00;57879.81;5117658;27;45408;-78
2023/12/09 02:17:34;;;;;;;;;0.00;0.00;;;;;-146.25;100.00;57879.81;5117548;27;45333;-78
2023/12/09 02:20:01;;;;;;;;;0.00;0.00;;;;;-146.25;100.00;57879.81;5120171;27;45316;-78
2023/12/09 02:22:26;;;;;;;;;0.00;0.00;;;;;-146.25;100.00;57879.81;5120893;27;45524;-77
2023/12/09 02:24:52;;;;;;;;;0.00;0.00;;;;;-146.25;100.00;57879.81;5121087;27;45382;-78
2023/12/09 02:27:48;;;;;;;;;0.00;0.00;;;;;-146.25;100.00;57879.81;5121594;27;45293;-78
2023/12/09 02:30:34;;;;;;;;;0.00;0.00;;;;;-146.25;100.00;57879.81;5114009;27;45581;-78
2023/12/09 02:33:01;;;;;;;;;0.75;0.00;;;;;-146.25;100.00;57879.81;5120788;27;45348;-78
2023/12/09 02:35:29;;;;;;;;;0.00;0.00;;;;;-146.25;100.00;57879.81;5120935;27;45471;-78
2023/12/09 02:37:57;;;;;;;;;0.00;0.00;;;;;-146.25;100.00;57879.81;5120795;27;45311;-78
2023/12/09 02:40:24;;;;;;;;;0.00;0.00;;;;;-146.25;100.00;57879.81;5121429;27;45617;-78
2023/12/09 02:42:50;;;;;;;;;0.00;0.00;;;;;-146.25;100.00;57879.81;5120979;27;45969;-78
2023/12/09 02:45:21;;;;;;;;;0.00;0.00;;;;;-146.25;100.00;57879.81;5120782;27;45329;-77
2023/12/09 02:47:50;;;;;;;;;0.00;0.00;;;;;-146.25;100.00;57879.81;5121063;27;45404;-78
2023/12/09 02:50:16;;;;;;;;;0.00;0.00;;;;;-146.25;100.00;57879.81;5120942;27;45454;-78
2023/12/09 02:52:41;;;;;;;;;1.00;0.00;;;;;-146.25;100.00;57879.81;5120078;27;46154;-78
2023/12/09 02:55:08;;;;;;;;;0.00;0.00;;;;;-146.25;100.00;57879.81;5120742;27;45258;-78
2023/12/09 02:57:34;;;;;;;;;1.00;0.00;;;;;-146.25;100.00;57879.81;5120699;27;45463;-78
2023/12/09 02:59:59;;;;;;;;;0.00;0.00;;;;;-146.25;100.00;57879.81;5120832;27;45259;-78
2023/12/09 03:02:25;;;;;;;;;0.00;0.00;;;;;-146.25;100.00;57879.81;5120319;27;45490;-78
2023/12/09 03:04:51;;;;;;;;;2.67;1.00;;;;;-146.25;100.00;57879.81;5120728;27;45364;-77
2023/12/09 03:07:20;;;;;;;;;0.00;0.00;;;;;-146.25;100.00;57879.81;5101817;27;45501;-78
2023/12/09 03:09:46;;;;;;;;;0.00;0.00;;;;;-146.25;100.00;57879.81;5120612;27;45359;-78
2023/12/09 03:12:12;;;;;;;;;0.00;0.00;;;;;-146.25;100.00;57879.81;5101541;27;45530;-78
2023/12/09 03:14:38;;;;;;;;;0.00;0.00;;;;;-146.25;100.00;57879.81;5119973;27;45453;-78
2023/12/09 03:17:05;;;;;;;;;0.33;0.00;;;;;-146.25;100.00;57879.81;5120283;27;45361;-78
2023/12/09 03:19:30;;;;;;;;;0.00;0.00;;;;;-146.25;100.00;57879.81;5120541;27;46073;-78
2023/12/09 03:21:56;;;;;;;;;0.00;0.00;;;;;-146.25;100.00;57879.81;5120013;27;45351;-77
2023/12/09 03:24:22;;;;;;;;;0.00;0.00;;;;;-146.25;100.00;57879.81;5120338;27;45425;-78
2023/12/09 03:26:54;;;;;;;;;0.00;0.00;;;;;-146.25;100.00;57879.81;5120262;27;45276;-78
2023/12/09 03:29:20;;;;;;;;;0.00;0.00;;;;;-146.25;100.00;57879.81;5120376;27;45441;-77
2023/12/09 03:31:47;;;;;;;;;0.33;0.00;;;;;-146.25;100.00;57879.81;5119062;27;45398;-77
2023/12/09 03:34:13;;;;;;;;;0.00;0.00;;;;;-146.25;100.00;57879.81;5119841;27;45639;-78
2023/12/09 03:36:39;;;;;;;;;0.25;0.00;;;;;-146.25;100.00;57879.81;5120050;27;45524;-77
2023/12/09 03:39:06;;;;;;;;;0.00;0.00;;;;;-146.25;100.00;57879.81;5120020;27;45260;-77
2023/12/09 03:41:32;;;;;;;;;0.00;0.00;;;;;-146.25;100.00;57879.81;5119474;27;45492;-77
2023/12/09 03:43:58;;;;;;;;;1.00;0.00;;;;;-146.25;100.00;57879.81;5119738;27;45236;-77
2023/12/09 03:46:24;;;;;;;;;0.00;0.00;;;;;-146.25;100.00;57879.81;5101449;27;45185;-77
2023/12/09 03:48:49;;;;;;;;;0.00;0.00;;;;;-146.25;100.00;57879.81;5120189;27;45353;-77
2023/12/09 03:51:15;;;;;;;;;0.00;0.00;;;;;-146.25;100.00;57879.81;5119544;27;45630;-78
2023/12/09 03:53:41;;;;;;;;;0.00;0.00;;;;;-146.25;100.00;57879.81;5101081;27;45481;-77
2023/12/09 03:56:08;;;;;;;;;0.67;0.00;;;;;-146.25;100.00;57879.81;5119695;27;45606;-78
2023/12/09 03:58:34;;;;;;;;;1.00;0.00;;;;;-146.25;100.00;57879.81;5119753;27;45244;-77
2023/12/09 04:01:00;;;;;;;;;0.00;0.00;;;;;-146.25;100.00;57879.81;5119402;27;46043;-78
2023/12/09 04:03:27;;;;;;;;;0.00;0.00;;;;;-146.25;100.00;57879.81;5119762;27;45397;-77
2023/12/09 04:05:53;;;;;;;;;0.67;0.67;;;;;-146.25;100.00;57879.81;5119927;27;45535;-77
2023/12/09 04:08:19;;;;;;;;;1.00;0.00;;;;;-146.25;100.00;57879.81;5119726;27;45369;-78
2023/12/09 04:10:44;;;;;;;;;0.67;0.00;;;;;-146.25;100.00;57879.81;5100673;27;45504;-78
2023/12/09 04:13:10;;;;;;;;;0.67;0.00;;;;;-146.25;100.00;57879.81;5119474;27;45371;-77
2023/12/09 04:15:38;;;;;;;;;1.00;0.00;;;;;-146.25;100.00;57879.81;5119417;27;45307;-78
2023/12/09 04:18:04;;;;;;;;;1.00;0.00;;;;;-146.25;100.00;57879.81;5119339;27;45345;-77
2023/12/09 04:20:30;;;;;;;;;1.00;1.00;;;;;-146.25;100.00;57879.81;5118999;27;45357;-77
2023/12/09 04:22:55;;;;;;;;;0.00;0.00;;;;;-146.25;100.00;57879.81;5119443;27;45326;-77
2023/12/09 04:25:21;;;;;;;;;1.00;0.00;;;;;-146.25;100.00;57879.81;5119355;27;45326;-77
2023/12/09 04:27:48;;;;;;;;;0.00;0.00;;;;;-146.25;100.00;57879.81;5119508;27;45598;-77
2023/12/09 04:30:13;;;;;;;;;0.00;0.00;;;;;-146.25;100.00;57879.81;5119107;27;45212;-77
2023/12/09 04:32:39;;;;;;;;;0.00;0.00;;;;;-146.25;100.00;57879.81;5118935;27;45800;-77
2023/12/09 04:35:06;;;;;;;;;1.00;0.00;;;;;-146.25;100.00;57879.81;5119209;27;45475;-77
2023/12/09 04:37:31;;;;;;;;;1.00;0.00;;;;;-146.25;100.00;57879.81;5119079;27;45384;-77
2023/12/09 04:39:57;;;;;;;;;0.00;0.00;;;;;-146.25;100.00;57879.81;5119130;27;45912;-77
2023/12/09 04:42:22;;;;;;;;;0.00;0.00;;;;;-146.25;100.00;57879.81;5118781;27;45610;-78
2023/12/09 04:44:48;;;;;;;;;0.00;0.00;;;;;-146.25;100.00;57879.81;5119111;27;45516;-77
2023/12/09 04:47:13;;;;;;;;;1.00;0.00;;;;;-146.25;100.00;57879.81;5119099;27;45373;-77
2023/12/09 04:49:39;;;;;;;;;0.00;0.00;;;;;-146.25;100.00;57879.81;5118541;27;46190;-77
2023/12/09 04:52:05;;;;;;;;;0.00;0.00;;;;;-146.25;100.00;57879.81;5099860;27;45381;-77
2023/12/09 04:54:30;;;;;;;;;0.33;0.00;;;;;-146.25;100.00;57879.81;5118947;27;45309;-77
2023/12/09 04:56:56;;;;;;;;;1.00;0.00;;;;;-146.25;100.00;57879.81;5119290;27;45227;-78
2023/12/09 04:59:23;;;;;;;;;0.00;0.00;;;;;-146.25;100.00;57879.81;5118548;27;45877;-78
2023/12/09 05:01:48;;;;;;;;;1.00;0.00;;;;;-146.25;100.00;57879.81;5118580;27;45468;-78
2023/12/09 05:04:14;;;;;;;;;0.00;0.00;;;;;-146.25;100.00;57879.81;5118613;27;45464;-79
2023/12/09 05:06:40;;;;;;;;;0.00;0.00;;;;;-146.25;100.00;57879.81;5118646;27;45517;-78
2023/12/09 05:09:05;;;;;;;;;0.00;0.00;;;;;-146.25;100.00;57879.81;5118581;27;45287;-78
2023/12/09 05:11:34;;;;;;;;;0.00;0.00;;;;;-146.25;100.00;57879.81;5118960;27;45421;-79
2023/12/09 05:13:59;;;;;;;;;1.00;0.00;;;;;-146.25;100.00;57879.81;5118873;27;45292;-79
2023/12/09 05:16:25;;;;;;;;;0.00;0.00;;;;;-146.25;100.00;57879.81;5118383;27;45587;-78
2023/12/09 05:18:52;;;;;;;;;0.67;0.67;;;;;-146.25;100.00;57879.81;5118125;27;45431;-78
2023/12/09 05:21:17;;;;;;;;;1.33;0.67;;;;;-146.25;100.00;57879.81;5118156;27;45208;-78
2023/12/09 05:23:43;;;;;;;;;0.00;0.00;;;;;-146.25;100.00;57879.81;5118600;27;45231;-78
2023/12/09 05:26:09;;;;;;;;;0.00;0.00;;;;;-146.25;100.00;57879.81;5099970;27;45501;-77
2023/12/09 05:28:35;;;;;;;;;0.00;0.00;;;;;-146.25;100.00;57879.81;5118202;27;45484;-77
2023/12/09 05:31:01;;;;;;;;;1.00;1.00;;;;;-146.25;100.00;57879.81;5118530;27;45454;-78
2023/12/09 05:33:26;;;;;;;;;0.00;0.00;;;;;-146.25;100.00;57879.81;5118377;27;45484;-78
2023/12/09 05:35:52;;;;;;;;;0.00;0.00;;;;;-146.25;100.00;57879.81;5118441;27;45437;-78
2023/12/09 05:38:17;;;;;;;;;0.67;0.33;;;;;-146.25;100.00;57879.81;5117955;27;45527;-78
2023/12/09 05:40:43;;;;;;;;;1.00;0.00;;;;;-146.25;100.00;57879.81;5118307;27;45541;-78
2023/12/09 05:43:08;;;;;;;;;0.00;0.00;;;;;-146.25;100.00;57879.81;5118218;27;45404;-78
2023/12/09 05:45:34;;;;;;;;;0.00;0.00;;;;;-146.25;100.00;57879.81;5118264;27;45476;-77
2023/12/09 05:48:00;;;;;;;;;1.33;0.00;;;;;-146.25;100.00;57879.81;5118182;27;45382;-78
2023/12/09 05:50:25;;;;;;;;;0.00;0.00;;;;;-146.25;100.00;57879.81;5117671;27;45463;-78
2023/12/09 05:52:51;;;;;;;;;0.00;0.00;;;;;-146.25;100.00;57879.81;5117990;27;45754;-77
2023/12/09 05:55:17;;;;;;;;;0.67;0.67;;;;;-146.25;100.00;57879.81;5121147;27;45253;-77
2023/12/09 05:57:43;;;;;;;;;0.33;0.00;;;;;-146.25;100.00;57879.81;5121230;27;45426;-77
2023/12/09 06:00:11;;;;;;;;;0.00;0.00;;;;;-146.25;100.00;57879.81;5103118;27;45549;-77
2023/12/09 06:02:38;;;;;;;;;3.67;0.00;;;;;-146.25;100.00;57879.81;5121408;27;45509;-77
2023/12/09 06:05:04;;;;;;;;;1.00;0.00;;;;;-146.25;100.00;57879.81;5121851;27;45529;-77
2023/12/09 06:07:30;;;;;;;;;1.67;0.00;;;;;-146.25;100.00;57879.81;5121357;27;46024;-77
2023/12/09 06:09:55;;;;;;;;;0.00;0.00;;;;;-146.25;100.00;57879.81;5120794;27;45550;-78
2023/12/09 06:12:21;;;;;;;;;1.67;0.00;;;;;-146.25;100.00;57879.81;5121245;27;45425;-77
2023/12/09 06:14:47;;;;;;;;;0.00;0.00;;;;;-146.25;100.00;57879.81;5121435;27;45578;-82
2023/12/09 06:17:12;;;;;;;;;0.00;0.00;;;;;-146.25;100.00;57879.81;5121034;27;45458;-82
2023/12/09 06:19:38;;;;;;;;;0.00;0.00;;;;;-146.25;100.00;57879.81;5121045;27;45527;-82
2023/12/09 06:22:03;;;;;;;;;0.67;0.00;;;;;-146.25;100.00;57879.81;5121455;27;45564;-82
2023/12/09 06:24:29;;;;;;;;;0.67;0.00;;;;;-146.25;100.00;57879.81;5121291;27;45587;-82
2023/12/09 06:26:55;;;;;;;;;0.00;0.00;;;;;-146.25;100.00;57879.81;5120767;27;45376;-82
2023/12/09 06:29:20;;;;;;;;;0.67;0.00;;;;;-146.25;100.00;57879.81;5120901;27;45209;-82
2023/12/09 06:31:46;;;;;;;;;0.00;0.00;;;;;-146.25;100.00;57879.81;5120905;27;45401;-82
2023/12/09 06:34:11;;;;;;;;;1.00;0.00;;;;;-146.25;100.00;57879.81;5120865;27;45559;-77
2023/12/09 06:36:38;;;;;;;;;0.00;0.00;;;;;-146.25;100.00;57879.81;5120643;27;45804;-77
2023/12/09 06:39:03;;;;;;;;;0.00;0.00;;;;;-146.25;100.00;57879.81;5120943;27;45318;-78
2023/12/09 06:41:29;;;;;;;;;1.00;1.00;;;;;-146.25;100.00;57879.81;5120636;27;45493;-77
2023/12/09 06:43:55;;;;;;;;;0.00;0.00;;;;;-146.25;100.00;57879.81;5120833;27;45508;-77
2023/12/09 06:46:21;;;;;;;;;0.00;0.00;;;;;-146.25;100.00;57879.81;5120632;27;45328;-76
2023/12/09 06:48:47;;;;;;;;;0.33;0.00;;;;;-146.25;100.00;57879.81;5120642;27;45499;-77
2023/12/09 06:51:16;;;;;;;;;1.00;0.00;;;;;-146.25;100.00;57879.81;5120350;27;45260;-76
2023/12/09 06:53:42;;;;;;;;;0.33;0.33;;;;;-146.25;100.00;57879.81;5120749;27;45399;-77
2023/12/09 06:56:17;;;;;;;;;0.33;0.00;;;;;-146.25;100.00;57879.81;5120499;27;46124;-77
2023/12/09 06:58:42;;;;;;;;;1.00;1.00;;;;;-146.25;100.00;57879.81;5120271;27;45310;-82
2023/12/09 07:01:08;;;;;;;;;0.00;0.00;;;;;-146.25;100.00;57879.81;5120519;27;45415;-81
2023/12/09 07:03:33;;;;;;;;;0.00;0.00;;;;;-146.25;100.00;57879.81;5120930;27;45367;-80
2023/12/09 07:06:00;;;;;;;;;0.33;0.33;;;;;-146.25;100.00;57879.81;5118961;27;45414;-81
2023/12/09 07:08:26;;;;;;;;;1.00;1.00;;;;;-146.25;100.00;57879.81;5120195;27;45323;-81
2023/12/09 07:10:53;;;;;;;;;1.00;1.00;;;;;-146.25;100.00;57879.81;5120051;27;45364;-81
2023/12/09 07:13:19;;;;;;;;;0.00;0.00;;;;;-146.25;100.00;57879.81;5120250;27;45403;-82
2023/12/09 07:15:45;;;;;;;;;0.00;0.00;;;;;-146.25;100.00;57879.81;5119749;27;45992;-81
2023/12/09 07:18:10;;;;;;;;;1.00;0.00;;;;;-146.25;100.00;57879.81;5119794;27;45380;-81
2023/12/09 07:20:36;;;;;;;;;1.00;0.00;;;;;-146.25;100.00;57879.81;5120281;27;45484;-81
2023/12/09 07:23:01;;;;;;;;;1.00;0.00;;;;;-146.25;100.00;57879.81;5120298;27;45354;-78
2023/12/09 07:25:28;;;;;;;;;0.00;0.00;;;;;-146.25;100.00;57879.81;5120031;27;46153;-82
2023/12/09 07:27:53;;;;;;;;;1.00;1.00;;;;;-146.25;100.00;57879.81;5119852;27;45519;-81
2023/12/09 07:30:20;;;;;;;;;0.00;0.00;;;;;-146.25;100.00;57879.81;5119814;27;45531;-82
2023/12/09 07:32:46;;;;;;;;;0.00;0.00;;;;;-146.25;100.00;57879.81;5120058;27;45564;-82
2023/12/09 07:35:11;;;;;;;;;1.00;1.00;;;;;-146.25;100.00;57879.81;5119633;27;46078;-78
2023/12/09 07:37:37;;;;;;;;;2.33;2.00;;;;;-146.25;100.00;57879.81;5119892;27;45442;-77
2023/12/09 07:40:04;;;;;;;;;2.00;2.00;;;;;-146.25;100.00;57879.81;5120015;27;45243;-82
2023/12/09 07:42:30;;;;;;;;;1.00;1.00;;;;;-146.25;100.00;57879.81;5119838;27;45207;-76
2023/12/09 07:44:55;;;;;;;;;0.00;0.00;;;;;-146.25;100.00;57879.81;5119570;27;45428;-77
2023/12/09 07:47:21;;;;;;;;;1.33;1.00;;;;;-146.25;100.00;57879.81;5119596;27;45724;-77
2023/12/09 07:49:46;;;;;;;;;1.00;1.00;;;;;-146.25;100.00;57879.81;5119808;27;45280;-77
2023/12/09 07:52:12;;;;;;;;;2.00;1.00;;;;;-146.25;100.00;57879.81;5104200;27;45322;-77
2023/12/09 07:54:38;;;;;;;;;1.00;1.00;;;;;-146.25;100.00;57879.81;5080784;27;45371;-77
2023/12/09 07:57:04;;;;;;;;;5.75;5.00;;;;;-146.25;100.00;57879.81;5098853;27;45363;-77
2023/12/09 07:59:29;;;;;;;;;4.00;4.00;;;;;-146.25;100.00;57879.81;5098732;27;45333;-77
2023/12/09 08:01:55;;;;;;;;;3.00;3.00;;;;;-146.25;100.00;57879.81;5098984;27;45513;-77
2023/12/09 08:04:20;;;;;;;;;5.67;5.00;;;;;-146.25;100.00;57879.81;5098602;27;45581;-77
2023/12/09 08:06:46;;;;;;;;;2.00;2.00;;;;;-146.25;100.00;57879.81;5098568;27;45283;-84
2023/12/09 08:09:12;;;;;;;;;3.00;2.33;;;;;-146.25;100.00;57879.81;5098719;27;45225;-78
2023/12/09 08:11:37;;;;;;;;;2.00;2.00;;;;;-146.25;100.00;57879.81;5099140;27;45433;-82
2023/12/09 08:14:03;;;;;;;;;1.00;1.00;;;;;-146.25;100.00;57879.81;5098539;27;46473;-77
2023/12/09 08:16:29;;;;;;;;;1.00;1.00;;;;;-146.25;100.00;57879.81;5097893;27;45512;-77
2023/12/09 08:18:54;;;;;;;;;3.33;2.67;;;;;-146.25;100.00;57879.81;5098443;27;45921;-77
2023/12/09 08:21:20;;;;;;;;;3.00;2.00;;;;;-146.25;100.00;57879.81;5098561;27;45560;-82
2023/12/09 08:23:45;;;;;;;;;3.33;3.00;;;;;-146.25;100.00;57879.81;5098053;27;45448;-76
2023/12/09 08:26:18;;;;;;;;;2.00;2.00;;;;;-146.25;100.00;57879.81;5098093;27;45370;-76
2023/12/09 08:28:43;;;;;;;;;2.00;2.00;;;;;-146.25;100.00;57879.81;5080096;27;45272;-77
2023/12/09 08:31:09;;;;;;;;;3.67;3.00;;;;;-146.25;100.00;57879.81;5098970;27;45164;-83
2023/12/09 08:33:34;;;;;;;;;2.00;2.00;;;;;-146.25;100.00;57879.81;5098288;27;46137;-76
2023/12/09 08:36:00;;;;;;;;;2.00;2.00;;;;;-146.25;100.00;57879.81;5098082;27;45764;-76
2023/12/09 08:38:26;;;;;;;;;0.00;0.00;;;;;-146.25;100.00;57879.81;5097746;27;45375;-78
2023/12/09 08:40:52;;;;;;;;;1.00;1.00;;;;;-146.25;100.00;57879.81;5098313;27;45422;-76
2023/12/09 08:43:18;;;;;;;;;1.33;1.33;;;;;-146.25;100.00;57879.81;5097453;27;46960;-80
2023/12/09 08:45:44;;;;;;;;;4.67;4.00;;;;;-146.25;100.00;57879.81;5095477;27;45538;-78
2023/12/09 08:48:09;;;;;;;;;14.25;10.75;;;;;-146.25;100.00;57879.81;5097673;27;45549;-76
2023/12/09 08:50:35;;;;;;;;;5.00;4.00;;;;;-146.25;100.00;57879.81;5097998;27;45367;-75
2023/12/09 08:53:02;;;;;;;;;1.00;1.00;;;;;-146.25;100.00;57879.81;5096744;27;45490;-76
2023/12/09 08:55:28;;;;;;;;;1.00;1.00;;;;;-146.25;100.00;57879.81;5097630;27;45408;-77
2023/12/09 08:57:54;;;;;;;;;1.00;1.00;;;;;-146.25;100.00;57879.81;5096354;27;45417;-77
2023/12/09 09:00:20;;;;;;;;;2.00;2.00;;;;;-146.25;100.00;57879.81;5097096;27;45327;-77
2023/12/09 09:02:49;;;;;;;;;1.00;1.00;;;;;-146.25;100.00;57879.81;5096925;27;46393;-76
2023/12/09 09:05:16;;;;;;;;;1.00;1.00;;;;;-146.25;100.00;57879.81;5096934;27;45473;-75
2023/12/09 09:07:45;;;;;;;;;1.00;1.00;;;;;-146.25;100.00;57879.81;5097336;27;45389;-73
2023/12/09 09:10:11;;;;;;;;;1.00;1.00;;;;;-146.25;100.00;57879.81;5097479;27;45320;-76
2023/12/09 09:12:36;;;;;;;;;1.00;1.00;;;;;-146.25;100.00;57879.81;5095279;27;46051;-76
2023/12/09 09:15:02;;;;;;;;;1.33;1.00;;;;;-146.25;100.00;57879.81;5096814;27;45481;-75
2023/12/09 09:17:29;;;;;;;;;1.33;1.00;;;;;-146.25;100.00;57879.81;5096720;27;45580;-75
2023/12/09 09:19:54;;;;;;;;;1.00;1.00;;;;;-146.25;100.00;57879.81;5096517;27;45529;-75
2023/12/09 09:22:20;;;;;;;;;1.33;1.00;;;;;-146.25;100.00;57879.81;5096217;27;45351;-76
2023/12/09 09:24:47;;;;;;;;;2.00;2.00;;;;;-146.25;100.00;57879.81;5096718;27;45427;-75
2023/12/09 09:27:13;;;;;;;;;2.00;2.00;;;;;-146.25;100.00;57879.81;5095161;27;45477;-75
2023/12/09 09:29:39;;;;;;;;;1.00;1.00;;;;;-146.25;100.00;57879.81;5098721;27;45351;-74
2023/12/09 09:32:06;;;;;;;;;1.00;1.00;;;;;-146.25;100.00;57879.81;5099546;27;45467;-75
2023/12/09 09:34:31;;;;;;;;;2.00;1.00;;;;;-146.25;100.00;57879.81;5099381;27;45431;-75
2023/12/09 09:36:57;;;;;;;;;3.00;2.00;;;;;-146.25;100.00;57879.81;5099425;27;45477;-75
2023/12/09 09:39:23;;;;;;;;;2.00;2.00;;;;;-146.25;100.00;57879.81;5100401;27;45470;-75
2023/12/09 09:42:16;;;;;;;;;2.00;1.00;;;;;-146.25;100.00;57879.81;5100684;27;45932;-77
2023/12/09 09:45:00;;;;;;;;;2.00;1.00;;;;;-146.25;100.00;57879.81;5120576;27;45432;-74
2023/12/09 09:47:27;;;;;;;;;1.00;1.00;;;;;-146.25;100.00;57879.81;5120792;27;45483;-74
2023/12/09 09:49:54;;;;;;;;;0.67;0.67;;;;;-146.25;100.00;57879.81;5121698;27;45293;-75
2023/12/09 09:52:22;;;;;;;;;1.00;1.00;;;;;-146.25;100.00;57879.81;5120581;27;45476;-75
2023/12/09 09:54:48;;;;;;;;;3.00;3.00;;;;;-146.25;100.00;57879.81;5120908;27;45501;-75
2023/12/09 09:57:16;;;;;;;;;4.00;3.00;;;;;-146.25;100.00;57879.81;5120902;27;45409;-79
2023/12/09 09:59:41;;;;;;;;;3.00;3.00;;;;;-146.25;100.00;57879.81;5121019;27;45201;-75
2023/12/09 10:02:10;;;;;;;;;2.00;1.67;;;;;-146.25;100.00;57879.81;5120644;27;46292;-75
2023/12/09 10:04:36;;;;;;;;;2.00;2.00;;;;;-146.25;100.00;57879.81;5120948;27;45519;-73
2023/12/09 10:07:04;;;;;;;;;1.00;1.00;;;;;-146.25;100.00;57879.81;5121186;27;45261;-73
2023/12/09 10:09:29;;;;;;;;;3.00;2.00;;;;;-146.25;100.00;57879.81;5120789;27;45522;-74
2023/12/09 10:11:55;;;;;;;;;1.00;0.67;;;;;-146.25;100.00;57879.81;5120943;27;45967;-73
2023/12/09 10:14:23;;;;;;;;;2.00;2.00;;;;;-146.25;100.00;57879.81;5120741;27;45188;-74
2023/12/09 10:16:49;;;;;;;;;1.00;1.00;;;;;-146.25;100.00;57879.81;5121008;27;45372;-74
2023/12/09 10:19:17;;;;;;;;;7.67;6.00;;;;;-146.25;100.00;57879.81;5121042;27;45450;-74
2023/12/09 10:21:43;;;;;;;;;0.67;0.33;;;;;-146.25;100.00;57879.81;5120550;27;45271;-74
2023/12/09 10:24:08;;;;;;;;;2.00;2.00;;;;;-146.25;100.00;57879.81;5120758;27;45323;-74
2023/12/09 10:26:34;;;;;;;;;0.33;0.33;;;;;-146.25;100.00;57879.81;5120946;27;45468;-74
2023/12/09 10:29:00;;;;;;;;;0.67;0.33;;;;;-146.25;100.00;57879.81;5120875;27;45372;-74
2023/12/09 10:31:28;;;;;;;;;0.67;0.67;;;;;-146.25;100.00;57879.81;5120552;27;45961;-74
2023/12/09 10:33:55;;;;;;;;;2.33;2.33;;;;;-146.25;100.00;57879.81;5120091;27;45563;-73
2023/12/09 10:36:22;;;;;;;;;0.33;0.33;;;;;-146.25;100.00;57879.81;5120393;27;45462;-74
2023/12/09 10:38:47;;;;;;;;;0.00;0.00;;;;;-146.25;100.00;57879.81;5120325;27;45569;-74
2023/12/09 10:41:13;;;;;;;;;1.33;1.00;;;;;-146.25;100.00;57879.81;5120015;27;45544;-74
2023/12/09 10:43:40;;;;;;;;;0.00;0.00;;;;;-146.25;100.00;57879.81;5120375;27;45259;-73
2023/12/09 10:46:07;;;;;;;;;1.00;1.00;;;;;-146.25;100.00;57879.81;5120474;27;45323;-74
2023/12/09 10:48:33;;;;;;;;;1.00;1.00;;;;;-146.25;100.00;57879.81;5120567;27;45357;-73
2023/12/09 10:50:58;;;;;;;;;0.00;0.00;;;;;-146.25;100.00;57879.81;5119970;27;45577;-74
2023/12/09 10:53:24;;;;;;;;;1.67;1.00;;;;;-146.25;100.00;57879.81;5119746;27;45484;-74
2023/12/09 10:55:51;;;;;;;;;1.00;1.00;;;;;-146.25;100.00;57879.81;5120057;27;45540;-74
2023/12/09 10:58:19;;;;;;;;;1.00;1.00;;;;;-146.25;100.00;57879.81;5120110;27;45437;-73
2023/12/09 11:00:46;;;;;;;;;2.00;1.00;;;;;-146.25;100.00;57879.81;5119729;27;45429;-74
2023/12/09 11:03:12;;;;;;;;;1.00;1.00;;;;;-146.25;100.00;57879.81;5119905;27;45566;-75
2023/12/09 11:05:54;;;;;;;;;0.00;0.00;;;;;-146.25;100.00;57879.81;5119391;27;45267;-74